Time;durP1;ratioP1;P1;durP2;ratioP2;P2;SDS_P1;SDS_P2;PMS_P1;PMS_P2;Temp;Humidity;BMP_temperature;BMP_pressure;BME280_temperature;BME280_humidity;BME280_pressure;Samples;Min_cycle;Max_cycle;Signal;HPM_P1;HPM_P2
2023/03/24 00:01:25;;;;;;;;;;;;;;;7.65;69.22;95007.47;5057083;28;1131;-72
2023/03/24 00:03:59;;;;;;;;;;;;;;;7.69;68.96;95007.59;5057418;28;1386;-73
2023/03/24 00:06:33;;;;;;;;;;;;;;;7.70;68.74;95004.53;5058072;28;1246;-72
2023/03/24 00:09:03;;;;;;;;;;;;;;;7.71;68.82;94997.09;5080591;28;1983;-72
2023/03/24 00:11:37;;;;;;;;;;;;;;;7.66;69.26;95000.88;5098394;28;1100;-72
2023/03/24 00:14:06;;;;;;;;;;;;;;;7.67;68.83;95010.69;5098202;28;1089;-73
2023/03/24 00:16:37;;;;;;;;;;;;;;;7.68;68.78;95015.03;5098407;28;1033;-72
2023/03/24 00:19:05;;;;;;;;;;;;;;;7.61;68.68;95006.53;5080283;28;1097;-72
2023/03/24 00:21:33;;;;;;;;;;;;;;;7.60;68.50;95009.63;5098244;28;962;-72
2023/03/24 00:24:00;;;;;;;;;;;;;;;7.58;68.61;95003.66;5080903;28;1235;-72
2023/03/24 00:26:29;;;;;;;;;;;;;;;7.60;69.01;95006.88;5097926;28;1002;-72
2023/03/24 00:29:07;;;;;;;;;;;;;;;7.55;68.50;95004.31;5097744;28;1909;-72
2023/03/24 00:31:38;;;;;;;;;;;;;;;7.54;68.92;95002.72;5098092;28;987;-72
2023/03/24 00:34:07;;;;;;;;;;;;;;;7.46;68.91;95007.94;5098018;28;978;-72
2023/03/24 00:36:38;;;;;;;;;;;;;;;7.29;69.12;95010.00;5097673;28;1087;-72
2023/03/24 00:39:09;;;;;;;;;;;;;;;7.14;69.19;95008.66;5080068;28;1084;-73
2023/03/24 00:41:37;;;;;;;;;;;;;;;7.13;69.72;94994.16;5097777;28;1006;-73
2023/03/24 00:44:08;;;;;;;;;;;;;;;7.12;69.64;94998.03;5097424;28;1247;-73
2023/03/24 00:46:37;;;;;;;;;;;;;;;7.05;69.55;94995.00;5079934;28;1263;-73
2023/03/24 00:49:10;;;;;;;;;;;;;;;7.08;69.90;94997.09;5080042;28;1918;-72
2023/03/24 00:51:39;;;;;;;;;;;;;;;7.15;69.86;94999.28;5080339;28;959;-72
2023/03/24 00:54:08;;;;;;;;;;;;;;;7.16;69.80;95004.47;5080104;28;1195;-72
2023/03/24 00:56:39;;;;;;;;;;;;;;;6.98;69.93;94995.53;5097930;28;984;-72
2023/03/24 00:59:12;;;;;;;;;;;;;;;6.87;69.85;94999.00;5079618;28;1211;-72
2023/03/24 01:01:42;;;;;;;;;;;;;;;6.78;69.69;94995.47;5097654;28;939;-72
2023/03/24 01:04:13;;;;;;;;;;;;;;;6.75;69.58;94988.72;5079815;28;1262;-72
2023/03/24 01:06:40;;;;;;;;;;;;;;;6.83;70.30;95000.78;5079308;28;1272;-72
2023/03/24 01:09:11;;;;;;;;;;;;;;;6.89;69.86;94996.69;5097311;28;1906;-72
2023/03/24 01:11:40;;;;;;;;;;;;;;;6.87;70.06;95002.53;5079723;28;1167;-72
2023/03/24 01:14:13;;;;;;;;;;;;;;;6.82;69.83;94999.97;5079216;28;1210;-72
2023/03/24 01:16:43;;;;;;;;;;;;;;;6.84;70.28;94994.97;5096903;28;879;-72
2023/03/24 01:19:15;;;;;;;;;;;;;;;6.84;69.76;94999.66;5079440;28;1300;-72
2023/03/24 01:21:42;;;;;;;;;;;;;;;6.85;69.77;94990.28;5079458;28;1146;-72
2023/03/24 01:24:12;;;;;;;;;;;;;;;6.89;70.07;94989.28;5097521;28;947;-72
2023/03/24 01:26:42;;;;;;;;;;;;;;;6.89;69.88;94986.53;5079303;28;1138;-72
2023/03/24 01:29:13;;;;;;;;;;;;;;;6.86;69.74;94978.16;5096871;28;1911;-72
2023/03/24 01:31:44;;;;;;;;;;;;;;;6.84;69.61;94985.94;5096873;28;946;-72
2023/03/24 01:34:12;;;;;;;;;;;;;;;6.86;69.41;94981.75;5096518;28;1026;-72
2023/03/24 01:36:39;;;;;;;;;;;;;;;6.75;69.96;94973.09;5078802;28;1091;-73
2023/03/24 01:39:08;;;;;;;;;;;;;;;6.58;69.42;94980.59;5096714;28;982;-72
2023/03/24 01:41:40;;;;;;;;;;;;;;;6.45;69.91;94980.47;5078900;28;1256;-72
2023/03/24 01:44:27;;;;;;;;;;;;;;;6.40;70.21;94980.66;5096826;28;974;-72
2023/03/24 01:46:55;;;;;;;;;;;;;;;6.37;69.98;94978.56;5078945;28;1091;-72
2023/03/24 01:49:25;;;;;;;;;;;;;;;6.38;70.15;94973.88;5078397;28;1914;-73
2023/03/24 01:51:56;;;;;;;;;;;;;;;6.41;70.05;94986.94;5078571;28;1007;-72
2023/03/24 01:54:24;;;;;;;;;;;;;;;6.45;70.20;94985.94;5078805;28;1197;-72
2023/03/24 01:56:54;;;;;;;;;;;;;;;6.45;70.54;94987.88;5096201;28;1059;-73
2023/03/24 01:59:24;;;;;;;;;;;;;;;6.48;70.90;94982.56;5096367;28;982;-73
2023/03/24 02:01:53;;;;;;;;;;;;;;;6.48;70.23;94984.50;5096336;28;1151;-73
2023/03/24 02:04:26;;;;;;;;;;;;;;;6.47;70.37;94985.63;5095941;28;1018;-72
2023/03/24 02:06:57;;;;;;;;;;;;;;;6.48;70.62;94987.22;5095752;28;1127;-72
2023/03/24 02:09:24;;;;;;;;;;;;;;;6.47;69.98;94988.38;5078288;28;1914;-73
2023/03/24 02:11:55;;;;;;;;;;;;;;;6.49;70.48;94991.56;5096073;28;1122;-72
2023/03/24 02:14:25;;;;;;;;;;;;;;;6.29;69.83;94993.09;5096094;28;988;-73
2023/03/24 02:17:10;;;;;;;;;;;;;;;6.12;70.21;94998.63;5095618;28;990;-72
2023/03/24 02:19:52;;;;;;;;;;;;;;;6.01;70.52;94995.44;5095767;28;996;-73
2023/03/24 02:22:32;;;;;;;;;;;;;;;5.98;71.21;94993.34;5084142;28;1064;-72
2023/03/24 02:25:15;;;;;;;;;;;;;;;5.88;71.14;94996.38;5096098;28;991;-72
2023/03/24 02:27:53;;;;;;;;;;;;;;;5.90;71.12;94999.63;5078470;28;761;-72
2023/03/24 02:30:27;;;;;;;;;;;;;;;5.98;71.04;94991.41;5095646;28;1981;-72
2023/03/24 02:33:24;;;;;;;;;;;;;;;6.05;71.11;94993.66;5077595;28;1089;-72
2023/03/24 02:36:17;;;;;;;;;;;;;;;6.12;71.03;94990.41;5073605;28;1065;-72
2023/03/24 02:38:55;;;;;;;;;;;;;;;6.18;70.88;94986.38;5047713;28;1263;-72
2023/03/24 02:41:25;;;;;;;;;;;;;;;6.15;70.56;94985.09;5073523;28;947;-72
2023/03/24 02:43:55;;;;;;;;;;;;;;;6.19;70.87;94980.56;5056812;28;1191;-72
2023/03/24 02:46:25;;;;;;;;;;;;;;;6.18;70.68;94975.44;5056914;28;1284;-73
2023/03/24 02:48:59;;;;;;;;;;;;;;;6.07;70.57;94955.81;5056674;28;1914;-73
2023/03/24 02:51:31;;;;;;;;;;;;;;;6.00;71.54;94959.03;5056654;28;1201;-72
2023/03/24 02:54:03;;;;;;;;;;;;;;;6.05;71.24;94951.78;5073339;28;843;-72
2023/03/24 02:56:37;;;;;;;;;;;;;;;5.94;71.15;94949.38;5056692;28;1176;-73
2023/03/24 02:59:06;;;;;;;;;;;;;;;5.74;70.96;94947.34;5073555;28;1038;-72
2023/03/24 03:01:36;;;;;;;;;;;;;;;5.69;71.75;94952.94;5073272;28;1006;-72
2023/03/24 03:04:07;;;;;;;;;;;;;;;5.72;71.52;94949.56;5073450;28;1147;-72
2023/03/24 03:06:38;;;;;;;;;;;;;;;5.75;71.82;94948.94;5056530;28;1228;-72
2023/03/24 03:09:07;;;;;;;;;;;;;;;5.76;71.95;94951.31;5073394;28;1973;-72
2023/03/24 03:11:39;;;;;;;;;;;;;;;5.84;71.66;94955.16;5074074;28;995;-72
2023/03/24 03:14:08;;;;;;;;;;;;;;;5.89;71.44;94954.22;5075367;28;1004;-72
2023/03/24 03:16:44;;;;;;;;;;;;;;;5.92;71.41;94959.00;5074924;28;1133;-73
2023/03/24 03:19:17;;;;;;;;;;;;;;;5.95;71.70;94955.66;5074315;28;1112;-72
2023/03/24 03:21:46;;;;;;;;;;;;;;;6.01;71.79;94951.63;5075085;28;978;-73
2023/03/24 03:24:18;;;;;;;;;;;;;;;6.07;71.18;94958.53;5074144;28;1404;-73
2023/03/24 03:26:51;;;;;;;;;;;;;;;6.14;71.64;94958.03;5107854;28;1245;-72
2023/03/24 03:29:20;;;;;;;;;;;;;;;6.16;71.71;94958.50;5076222;28;1902;-72
2023/03/24 03:31:51;;;;;;;;;;;;;;;6.00;71.72;94956.31;5061543;28;1204;-73
2023/03/24 03:34:23;;;;;;;;;;;;;;;5.93;72.42;94956.00;5078010;28;1163;-73
2023/03/24 03:36:50;;;;;;;;;;;;;;;5.97;72.31;94951.47;5078796;28;1101;-73
2023/03/24 03:39:22;;;;;;;;;;;;;;;6.05;72.10;94943.56;5078454;28;981;-72
2023/03/24 03:41:52;;;;;;;;;;;;;;;6.08;72.09;94951.13;5111753;28;1187;-72
2023/03/24 03:44:19;;;;;;;;;;;;;;;6.15;72.80;94949.50;5078809;28;658;-72
2023/03/24 03:46:49;;;;;;;;;;;;;;;6.16;72.53;94948.34;5078664;28;947;-72
2023/03/24 03:49:20;;;;;;;;;;;;;;;6.05;72.34;94947.09;5078538;28;1980;-72
2023/03/24 03:51:50;;;;;;;;;;;;;;;5.98;72.29;94952.28;5110638;28;1111;-72
2023/03/24 03:54:18;;;;;;;;;;;;;;;5.89;72.42;94960.50;5078122;28;1023;-72
2023/03/24 03:56:48;;;;;;;;;;;;;;;5.92;72.75;94964.50;5078096;28;1342;-72
2023/03/24 03:59:28;;;;;;;;;;;;;;;5.93;72.53;94963.41;5111076;28;1104;-72
2023/03/24 04:01:59;;;;;;;;;;;;;;;5.95;72.07;94963.88;5077769;28;1284;-72
2023/03/24 04:04:59;;;;;;;;;;;;;;;5.97;72.19;94958.88;5077541;28;1041;-72
2023/03/24 04:07:30;;;;;;;;;;;;;;;6.06;72.26;94965.13;5076670;28;1311;-72
2023/03/24 04:10:00;;;;;;;;;;;;;;;6.09;72.23;94960.94;5111119;28;1986;-73
2023/03/24 04:12:35;;;;;;;;;;;;;;;5.97;72.43;94970.63;5077261;28;1211;-72
2023/03/24 04:15:20;;;;;;;;;;;;;;;5.94;72.87;94965.00;5077083;28;1108;-72
2023/03/24 04:17:57;;;;;;;;;;;;;;;5.94;72.58;94962.28;5110679;28;859;-73
2023/03/24 04:20:25;;;;;;;;;;;;;;;5.90;72.38;94972.25;5077120;28;1284;-74
2023/03/24 04:22:59;;;;;;;;;;;;;;;5.88;72.68;94972.59;5077581;28;1022;-74
2023/03/24 04:25:34;;;;;;;;;;;;;;;5.84;72.77;94960.66;5110819;28;1087;-73
2023/03/24 04:28:08;;;;;;;;;;;;;;;5.73;72.77;94968.38;5110520;28;1014;-73
2023/03/24 04:30:43;;;;;;;;;;;;;;;5.64;72.69;94967.63;5111018;28;1976;-72
2023/03/24 04:33:16;;;;;;;;;;;;;;;5.68;72.75;94963.09;5077732;28;1171;-73
2023/03/24 04:35:48;;;;;;;;;;;;;;;5.67;72.82;94964.25;5110937;28;1113;-74
2023/03/24 04:38:22;;;;;;;;;;;;;;;5.67;72.81;94971.66;5110248;28;1192;-73
2023/03/24 04:40:50;;;;;;;;;;;;;;;5.70;73.08;94973.72;5077171;28;951;-73
2023/03/24 04:43:19;;;;;;;;;;;;;;;5.63;72.66;94978.88;5110434;28;1204;-73
2023/03/24 04:45:57;;;;;;;;;;;;;;;5.62;73.06;94982.75;5111178;28;1284;-73
2023/03/24 04:48:25;;;;;;;;;;;;;;;5.64;72.84;94988.72;5076620;28;1072;-74
2023/03/24 04:50:54;;;;;;;;;;;;;;;5.60;72.66;94996.75;5110360;28;1988;-71
2023/03/24 04:53:23;;;;;;;;;;;;;;;5.55;73.33;94999.63;5110605;28;1225;-71
2023/03/24 04:56:02;;;;;;;;;;;;;;;5.52;73.47;95003.84;5077366;28;1100;-75
2023/03/24 04:58:30;;;;;;;;;;;;;;;5.61;73.18;95001.09;5077436;28;1009;-72
2023/03/24 05:01:02;;;;;;;;;;;;;;;5.69;73.00;95003.00;5077149;28;1006;-72
2023/03/24 05:03:36;;;;;;;;;;;;;;;5.71;73.41;95006.25;5110072;28;1197;-72
2023/03/24 05:06:07;;;;;;;;;;;;;;;5.80;73.76;95009.75;5076625;28;1249;-72
2023/03/24 05:08:34;;;;;;;;;;;;;;;5.87;73.89;95005.72;5094125;28;1095;-72
2023/03/24 05:11:01;;;;;;;;;;;;;;;5.89;73.21;95009.75;5079521;28;1914;-72
2023/03/24 05:13:30;;;;;;;;;;;;;;;5.84;73.45;95009.13;5079446;28;1269;-72
2023/03/24 05:15:58;;;;;;;;;;;;;;;5.77;73.72;95010.44;5078977;28;1444;-72
2023/03/24 05:18:31;;;;;;;;;;;;;;;5.88;73.81;95012.81;5079357;28;1135;-72
2023/03/24 05:21:00;;;;;;;;;;;;;;;5.91;73.72;95010.22;5079058;28;1355;-71
2023/03/24 05:23:30;;;;;;;;;;;;;;;5.97;73.99;95019.91;5096925;28;1011;-73
2023/03/24 05:25:57;;;;;;;;;;;;;;;6.04;73.91;95024.91;5096958;28;1023;-72
2023/03/24 05:28:25;;;;;;;;;;;;;;;6.11;73.83;95022.47;5079272;28;1210;-72
2023/03/24 05:30:52;;;;;;;;;;;;;;;6.18;73.59;95021.97;5096633;28;1906;-70
2023/03/24 05:33:23;;;;;;;;;;;;;;;6.24;73.52;95015.97;5096463;28;1024;-71
2023/03/24 05:35:52;;;;;;;;;;;;;;;6.32;73.39;95019.03;5096687;28;1094;-71
2023/03/24 05:38:20;;;;;;;;;;;;;;;6.39;73.66;95017.41;5079001;28;1275;-71
2023/03/24 05:40:49;;;;;;;;;;;;;;;6.45;73.65;95021.56;5096720;28;1037;-70
2023/03/24 05:43:18;;;;;;;;;;;;;;;6.55;73.60;95019.59;5096515;28;1103;-70
2023/03/24 05:45:48;;;;;;;;;;;;;;;6.59;73.55;95023.28;5095898;28;1172;-70
2023/03/24 05:48:14;;;;;;;;;;;;;;;6.67;73.16;95015.03;5112656;28;1249;-71
2023/03/24 05:50:41;;;;;;;;;;;;;;;6.71;73.44;95020.66;5096226;28;1969;-71
2023/03/24 05:53:16;;;;;;;;;;;;;;;6.78;73.36;95017.41;5077774;28;1194;-71
2023/03/24 05:55:45;;;;;;;;;;;;;;;6.84;73.29;95022.38;5078845;28;1083;-71
2023/03/24 05:58:14;;;;;;;;;;;;;;;6.94;73.22;95026.69;5078711;28;1099;-71
2023/03/24 06:00:45;;;;;;;;;;;;;;;7.03;73.44;95029.38;5112346;28;1276;-71
2023/03/24 06:03:15;;;;;;;;;;;;;;;7.09;72.65;95019.84;5096253;28;1022;-71
2023/03/24 06:05:48;;;;;;;;;;;;;;;7.11;72.39;95023.81;5096300;28;990;-71
2023/03/24 06:08:23;;;;;;;;;;;;;;;7.20;72.53;95018.31;5095730;28;1180;-71
2023/03/24 06:10:57;;;;;;;;;;;;;;;7.22;72.58;95022.31;5078423;28;1906;-71
2023/03/24 06:13:26;;;;;;;;;;;;;;;7.34;72.27;95020.81;5078278;28;1081;-71
2023/03/24 06:15:57;;;;;;;;;;;;;;;7.41;71.81;95032.06;5078689;28;1876;-71
2023/03/24 06:18:29;;;;;;;;;;;;;;;7.44;71.93;95018.47;5078486;28;1219;-71
2023/03/24 06:20:59;;;;;;;;;;;;;;;7.48;72.24;95022.16;5096146;28;955;-71
2023/03/24 06:23:32;;;;;;;;;;;;;;;7.53;72.36;95026.63;5077754;28;1557;-71
2023/03/24 06:26:01;;;;;;;;;;;;;;;7.59;72.60;95029.97;5096454;28;962;-70
2023/03/24 06:28:33;;;;;;;;;;;;;;;7.67;72.52;95027.16;5095849;28;977;-71
2023/03/24 06:31:03;;;;;;;;;;;;;;;7.77;72.74;95028.72;5077947;28;1910;-70
2023/03/24 06:33:31;;;;;;;;;;;;;;;7.84;72.32;95039.13;5077744;28;1250;-70
2023/03/24 06:36:00;;;;;;;;;;;;;;;7.87;72.10;95031.03;5095597;28;957;-70
2023/03/24 06:38:32;;;;;;;;;;;;;;;7.96;71.67;95029.00;5078119;28;1214;-70
2023/03/24 06:41:02;;;;;;;;;;;;;;;8.03;71.32;95033.16;5095586;28;843;-70
2023/03/24 06:43:32;;;;;;;;;;;;;;;8.08;71.55;95030.19;5095436;28;1021;-70
2023/03/24 06:46:01;;;;;;;;;;;;;;;8.17;71.42;95033.69;5077630;28;1368;-70
2023/03/24 06:48:32;;;;;;;;;;;;;;;8.27;71.77;95027.75;5078058;28;1152;-70
2023/03/24 06:51:00;;;;;;;;;;;;;;;8.36;71.29;95031.22;5077927;28;1980;-70
2023/03/24 06:53:26;;;;;;;;;;;;;;;8.46;71.30;95024.53;5077732;28;1090;-75
2023/03/24 06:55:59;;;;;;;;;;;;;;;8.52;71.21;95025.88;5077867;28;1298;-70
2023/03/24 06:58:27;;;;;;;;;;;;;;;8.57;71.02;95025.69;5111623;28;1355;-71
2023/03/24 07:01:06;;;;;;;;;;;;;;;8.64;71.14;95028.69;5077475;28;1339;-75
2023/03/24 07:03:36;;;;;;;;;;;;;;;8.73;70.70;95034.06;5077380;28;1175;-75
2023/03/24 07:06:06;;;;;;;;;;;;;;;8.80;70.50;95028.00;5077676;28;1072;-75
2023/03/24 07:08:37;;;;;;;;;;;;;;;8.83;70.03;95030.06;5095102;28;1299;-76
2023/03/24 07:11:08;;;;;;;;;;;;;;;8.87;70.11;95039.25;5094978;28;1913;-75
2023/03/24 07:13:38;;;;;;;;;;;;;;;8.95;69.54;95043.03;5095400;28;1011;-76
2023/03/24 07:16:08;;;;;;;;;;;;;;;9.01;69.71;95041.66;5095329;28;983;-75
2023/03/24 07:18:37;;;;;;;;;;;;;;;9.09;69.38;95047.03;5095105;28;1097;-75
2023/03/24 07:21:06;;;;;;;;;;;;;;;9.12;69.24;95051.84;5077619;28;1140;-75
2023/03/24 07:23:35;;;;;;;;;;;;;;;9.21;69.22;95043.47;5111435;28;1310;-76
2023/03/24 07:26:01;;;;;;;;;;;;;;;9.23;69.43;95049.44;5077753;28;1245;-75
2023/03/24 07:28:31;;;;;;;;;;;;;;;9.30;68.82;95043.38;5077391;28;1202;-75
2023/03/24 07:31:05;;;;;;;;;;;;;;;9.35;68.14;95051.38;5077215;28;1895;-75
2023/03/24 07:33:34;;;;;;;;;;;;;;;9.45;68.82;95044.63;5077338;28;1330;-75
2023/03/24 07:36:06;;;;;;;;;;;;;;;9.51;68.28;95041.25;5077260;28;986;-75
2023/03/24 07:38:36;;;;;;;;;;;;;;;9.62;67.99;95052.59;5077301;28;1186;-75
2023/03/24 07:41:03;;;;;;;;;;;;;;;9.73;67.99;95047.41;5095096;28;998;-75
2023/03/24 07:43:36;;;;;;;;;;;;;;;9.83;67.79;95038.66;5077233;28;1295;-74
2023/03/24 07:46:04;;;;;;;;;;;;;;;9.93;68.62;95051.97;5095310;28;1029;-75
2023/03/24 07:48:32;;;;;;;;;;;;;;;10.04;67.88;95041.25;5111545;28;1196;-74
2023/03/24 07:51:02;;;;;;;;;;;;;;;10.12;67.32;95038.34;5095146;28;1905;-74
2023/03/24 07:53:31;;;;;;;;;;;;;;;10.20;67.89;95033.81;5110816;28;1626;-74
2023/03/24 07:56:00;;;;;;;;;;;;;;;10.34;66.77;95041.72;5077481;28;1099;-74
2023/03/24 07:58:30;;;;;;;;;;;;;;;10.44;65.98;95032.16;5077369;28;1070;-74
2023/03/24 08:01:00;;;;;;;;;;;;;;;10.52;65.11;95025.66;5076997;28;1279;-74
2023/03/24 08:03:30;;;;;;;;;;;;;;;10.56;65.23;95024.59;5077300;28;1195;-74
2023/03/24 08:05:59;;;;;;;;;;;;;;;10.69;65.66;95021.78;5077197;28;1186;-74
2023/03/24 08:08:30;;;;;;;;;;;;;;;10.85;65.55;95011.53;5094337;28;1334;-74
2023/03/24 08:11:01;;;;;;;;;;;;;;;10.95;64.56;95013.75;5094759;28;1898;-74
2023/03/24 08:13:28;;;;;;;;;;;;;;;11.02;63.92;95019.47;5077144;28;1224;-75
2023/03/24 08:15:58;;;;;;;;;;;;;;;11.20;65.20;95014.38;5079485;28;1236;-75
2023/03/24 08:18:33;;;;;;;;;;;;;;;11.37;63.19;95013.19;5114509;28;1336;-75
2023/03/24 08:21:02;;;;;;;;;;;;;;;11.51;62.14;95010.75;5080644;28;1388;-74
2023/03/24 08:23:32;;;;;;;;;;;;;;;11.64;62.10;95003.13;5080669;28;1135;-75
2023/03/24 08:25:58;;;;;;;;;;;;;;;11.83;62.77;94996.81;5098435;28;990;-75
2023/03/24 08:28:29;;;;;;;;;;;;;;;12.02;62.16;94993.31;5098341;28;986;-76
2023/03/24 08:30:59;;;;;;;;;;;;;;;12.11;60.92;94993.09;5096949;28;1914;-76
2023/03/24 08:33:32;;;;;;;;;;;;;;;12.16;60.00;94998.31;5080195;28;1281;-76
2023/03/24 08:35:59;;;;;;;;;;;;;;;12.19;59.28;94994.81;5080077;28;1211;-73
2023/03/24 08:38:30;;;;;;;;;;;;;;;12.31;61.16;94994.69;5080244;28;1143;-76
2023/03/24 08:41:01;;;;;;;;;;;;;;;12.57;62.09;94990.41;5079992;28;1220;-75
2023/03/24 08:43:28;;;;;;;;;;;;;;;12.82;61.85;94983.38;5097590;28;1091;-75
2023/03/24 08:45:56;;;;;;;;;;;;;;;13.09;60.55;94977.84;5097939;28;1093;-75
2023/03/24 08:48:27;;;;;;;;;;;;;;;13.36;60.34;94975.91;5098071;28;1115;-75
2023/03/24 08:51:02;;;;;;;;;;;;;;;13.51;59.57;94982.47;5079985;28;1898;-74
2023/03/24 08:53:29;;;;;;;;;;;;;;;13.65;57.85;94972.41;5097550;28;1041;-74
2023/03/24 08:55:58;;;;;;;;;;;;;;;13.84;58.03;94962.34;5080407;28;1174;-73
2023/03/24 08:58:26;;;;;;;;;;;;;;;13.95;56.03;94961.31;5113750;28;1110;-75
2023/03/24 09:00:54;;;;;;;;;;;;;;;13.95;56.51;94958.53;5114037;28;1306;-74
2023/03/24 09:03:25;;;;;;;;;;;;;;;14.11;57.02;94960.31;5079745;28;1265;-75
2023/03/24 09:05:57;;;;;;;;;;;;;;;14.28;55.38;94954.16;5097701;28;1048;-74
2023/03/24 09:08:25;;;;;;;;;;;;;;;14.36;53.60;94957.81;5076339;28;1171;-74
2023/03/24 09:10:55;;;;;;;;;;;;;;;14.48;53.65;94945.63;5110314;28;1437;-74
2023/03/24 09:13:23;;;;;;;;;;;;;;;14.55;54.37;94941.00;5077182;28;1026;-74
2023/03/24 09:15:52;;;;;;;;;;;;;;;14.68;53.04;94939.53;5110129;28;1691;-75
2023/03/24 09:18:23;;;;;;;;;;;;;;;14.76;52.97;94931.28;5112375;28;1249;-79
2023/03/24 09:20:53;;;;;;;;;;;;;;;14.84;53.88;94932.94;5078101;28;1286;-78
2023/03/24 09:23:28;;;;;;;;;;;;;;;14.96;51.80;94938.22;5112026;28;1081;-79
2023/03/24 09:25:56;;;;;;;;;;;;;;;15.10;52.71;94932.72;5077325;28;1105;-78
2023/03/24 09:28:24;;;;;;;;;;;;;;;15.23;53.11;94929.66;5077070;28;1169;-78
2023/03/24 09:30:56;;;;;;;;;;;;;;;15.34;52.10;94924.97;5111523;28;1176;-78
2023/03/24 09:33:24;;;;;;;;;;;;;;;15.45;50.40;94923.06;5111332;28;1918;-79
2023/03/24 09:35:55;;;;;;;;;;;;;;;15.42;49.30;94921.06;5078212;28;1255;-79
2023/03/24 09:38:29;;;;;;;;;;;;;;;15.60;52.43;94921.16;5111485;28;1153;-78
2023/03/24 09:40:59;;;;;;;;;;;;;;;15.77;50.88;94914.94;5077314;28;1088;-78
2023/03/24 09:43:32;;;;;;;;;;;;;;;15.93;50.35;94911.03;5076665;28;1237;-79
2023/03/24 09:46:00;;;;;;;;;;;;;;;16.07;50.35;94908.28;5078611;28;1138;-78
2023/03/24 09:48:31;;;;;;;;;;;;;;;16.15;49.73;94904.34;5111035;28;1465;-78
2023/03/24 09:51:00;;;;;;;;;;;;;;;16.30;49.72;94899.59;5077623;28;1196;-78
2023/03/24 09:53:38;;;;;;;;;;;;;;;16.41;50.46;94892.06;5077663;28;1918;-78
2023/03/24 09:56:13;;;;;;;;;;;;;;;16.64;49.66;94885.38;5077724;28;1038;-78
2023/03/24 09:58:42;;;;;;;;;;;;;;;16.78;48.23;94888.19;5110538;28;1091;-78
2023/03/24 10:01:14;;;;;;;;;;;;;;;16.99;47.89;94877.06;5076933;28;1342;-78
2023/03/24 10:03:43;;;;;;;;;;;;;;;17.16;47.21;94875.44;5078105;28;949;-78
2023/03/24 10:06:12;;;;;;;;;;;;;;;17.23;46.39;94877.41;5078636;28;999;-78
2023/03/24 10:08:46;;;;;;;;;;;;;;;17.41;46.43;94878.19;5077409;28;1306;-79
2023/03/24 10:11:21;;;;;;;;;;;;;;;17.65;47.82;94884.13;5078552;28;1977;-79
2023/03/24 10:13:52;;;;;;;;;;;;;;;17.66;46.47;94872.53;5078355;28;1035;-79
2023/03/24 10:16:23;;;;;;;;;;;;;;;17.73;47.40;94869.72;5111473;28;1198;-79
2023/03/24 10:18:52;;;;;;;;;;;;;;;17.73;46.24;94860.56;5078350;28;991;-79
2023/03/24 10:21:19;;;;;;;;;;;;;;;17.88;44.36;94858.53;5077369;28;1123;-79
2023/03/24 10:23:54;;;;;;;;;;;;;;;17.89;44.19;94860.91;5079163;28;1021;-79
2023/03/24 10:26:27;;;;;;;;;;;;;;;17.85;43.54;94860.16;5111460;28;1217;-79
2023/03/24 10:29:00;;;;;;;;;;;;;;;17.91;45.40;94858.53;5111107;28;1261;-79
2023/03/24 10:31:28;;;;;;;;;;;;;;;18.10;43.35;94859.25;5076848;28;1918;-79
2023/03/24 10:33:55;;;;;;;;;;;;;;;18.02;41.73;94853.69;5077159;28;1294;-79
2023/03/24 10:36:23;;;;;;;;;;;;;;;18.25;41.75;94855.94;5077212;28;1083;-79
2023/03/24 10:38:55;;;;;;;;;;;;;;;18.51;40.63;94854.59;5076388;28;1095;-79
2023/03/24 10:41:26;;;;;;;;;;;;;;;18.56;38.62;94852.59;5076472;28;1096;-79
2023/03/24 10:43:54;;;;;;;;;;;;;;;18.87;38.32;94850.78;5077081;28;1476;-79
2023/03/24 10:46:26;;;;;;;;;;;;;;;18.91;39.18;94845.94;5077000;28;1269;-79
2023/03/24 10:48:56;;;;;;;;;;;;;;;18.79;40.24;94847.25;5076719;28;1075;-78
2023/03/24 10:51:29;;;;;;;;;;;;;;;18.95;40.34;94835.53;5076735;28;1411;-80
2023/03/24 10:54:11;;;;;;;;;;;;;;;19.38;41.15;94841.50;5076572;28;1286;-78
2023/03/24 10:56:42;;;;;;;;;;;;;;;19.73;40.14;94838.78;5076948;28;1234;-78
2023/03/24 10:59:20;;;;;;;;;;;;;;;19.75;38.20;94839.91;5075597;28;1127;-78
2023/03/24 11:01:48;;;;;;;;;;;;;;;19.34;36.85;94843.53;5059915;28;1144;-78
2023/03/24 11:04:19;;;;;;;;;;;;;;;19.14;38.53;94834.97;5076304;28;1087;-78
2023/03/24 11:07:02;;;;;;;;;;;;;;;19.22;38.70;94836.47;5077873;28;1257;-78
2023/03/24 11:09:41;;;;;;;;;;;;;;;19.29;36.16;94843.22;5095941;28;1538;-78
2023/03/24 11:15:31;;;;;;;;;;;;;;;19.67;36.68;94833.63;5127365;27;1418;-79
2023/03/24 11:18:02;;;;;;;;;;;;;;;19.89;34.51;94822.97;5094144;28;1359;-78
2023/03/24 11:20:31;;;;;;;;;;;;;;;20.38;35.63;94814.31;5093965;28;1226;-79
2023/03/24 11:23:04;;;;;;;;;;;;;;;20.45;35.75;94817.00;5093333;28;1284;-79
2023/03/24 11:25:32;;;;;;;;;;;;;;;20.67;35.46;94803.50;5093173;28;1405;-79
2023/03/24 11:28:04;;;;;;;;;;;;;;;20.91;33.46;94805.09;5094761;28;685;-78
2023/03/24 11:30:34;;;;;;;;;;;;;;;21.09;32.38;94801.97;5093749;28;1095;-79
2023/03/24 11:33:02;;;;;;;;;;;;;;;21.22;32.73;94788.13;5093163;28;1910;-78
2023/03/24 11:35:31;;;;;;;;;;;;;;;21.26;32.92;94783.25;5092705;28;1106;-78
2023/03/24 11:37:58;;;;;;;;;;;;;;;21.20;33.57;94781.34;5092970;28;1094;-79
2023/03/24 11:40:29;;;;;;;;;;;;;;;21.43;32.29;94778.56;5093161;28;1166;-78
2023/03/24 11:43:01;;;;;;;;;;;;;;;21.19;31.96;94782.59;5092014;28;1208;-78
2023/03/24 11:45:30;;;;;;;;;;;;;;;21.05;31.83;94776.00;5092268;28;1373;-78
2023/03/24 11:48:01;;;;;;;;;;;;;;;21.11;34.32;94770.72;5091821;28;1213;-79
2023/03/24 11:50:29;;;;;;;;;;;;;;;21.27;34.07;94776.41;5092358;28;1506;-78
2023/03/24 11:53:05;;;;;;;;;;;;;;;21.25;33.22;94769.66;5092025;28;1901;-78
2023/03/24 11:55:56;;;;;;;;;;;;;;;21.65;33.65;94758.50;5091588;28;982;-78
2023/03/24 11:58:30;;;;;;;;;;;;;;;21.69;34.00;94756.41;5092226;28;1380;-78
2023/03/24 12:00:58;;;;;;;;;;;;;;;21.54;33.28;94750.28;5091968;28;1154;-78
2023/03/24 12:03:41;;;;;;;;;;;;;;;21.48;32.34;94754.81;5091605;28;1724;-78
2023/03/24 12:06:19;;;;;;;;;;;;;;;21.81;33.25;94752.94;5091950;28;1198;-78
2023/03/24 12:08:50;;;;;;;;;;;;;;;22.05;30.48;94748.00;5091623;28;1334;-78
2023/03/24 12:11:20;;;;;;;;;;;;;;;22.10;32.21;94744.66;5091806;28;1295;-78
2023/03/24 12:13:53;;;;;;;;;;;;;;;22.20;31.07;94737.28;5091320;28;1910;-78
2023/03/24 12:16:30;;;;;;;;;;;;;;;21.85;30.42;94736.78;5091810;28;1129;-78
2023/03/24 12:19:06;;;;;;;;;;;;;;;21.55;30.83;94730.22;5092007;28;1362;-78
2023/03/24 12:21:40;;;;;;;;;;;;;;;21.54;29.85;94728.63;5091648;28;1086;-78
2023/03/24 12:24:10;;;;;;;;;;;;;;;21.71;30.35;94723.84;5091640;28;1407;-78
2023/03/24 12:26:37;;;;;;;;;;;;;;;21.80;31.81;94720.47;5077926;28;1071;-78
2023/03/24 12:29:14;;;;;;;;;;;;;;;21.96;32.02;94712.06;5078152;28;1082;-78
2023/03/24 12:31:48;;;;;;;;;;;;;;;22.25;30.36;94711.44;5079005;28;1079;-78
2023/03/24 12:34:33;;;;;;;;;;;;;;;22.40;29.89;94704.25;5078031;28;1906;-78
2023/03/24 12:37:01;;;;;;;;;;;;;;;22.67;31.12;94704.00;5078670;28;1276;-78
2023/03/24 12:39:31;;;;;;;;;;;;;;;22.94;29.83;94695.28;5078347;28;1230;-78
2023/03/24 12:42:02;;;;;;;;;;;;;;;23.16;29.63;94697.53;5078452;28;1262;-78
2023/03/24 12:44:48;;;;;;;;;;;;;;;23.54;27.47;94689.22;5078105;28;1300;-78
2023/03/24 12:47:23;;;;;;;;;;;;;;;23.90;26.98;94679.75;5079113;28;903;-78
2023/03/24 12:50:00;;;;;;;;;;;;;;;24.08;25.67;94688.44;5078630;28;1341;-79
2023/03/24 12:52:35;;;;;;;;;;;;;;;23.86;26.51;94679.88;5078341;28;1226;-78
2023/03/24 12:55:05;;;;;;;;;;;;;;;23.87;26.34;94678.63;5078365;28;1975;-78
2023/03/24 12:57:35;;;;;;;;;;;;;;;24.03;24.99;94681.31;5077038;28;1296;-78
2023/03/24 13:00:05;;;;;;;;;;;;;;;23.99;25.98;94675.00;5077615;28;1351;-79
2023/03/24 13:02:34;;;;;;;;;;;;;;;24.11;26.25;94676.28;5077978;28;1141;-78
2023/03/24 13:05:07;;;;;;;;;;;;;;;24.30;25.05;94670.88;5060700;28;1335;-78
2023/03/24 13:07:38;;;;;;;;;;;;;;;24.12;25.19;94660.94;5077293;28;1090;-78
2023/03/24 13:10:06;;;;;;;;;;;;;;;23.85;26.33;94657.78;5078054;28;1458;-79
2023/03/24 13:12:37;;;;;;;;;;;;;;;23.53;25.07;94654.66;5078499;28;1225;-79
2023/03/24 13:15:10;;;;;;;;;;;;;;;23.36;25.58;94649.56;5078597;28;1914;-79
2023/03/24 13:17:41;;;;;;;;;;;;;;;23.23;26.51;94655.13;5079490;28;949;-79
2023/03/24 13:20:21;;;;;;;;;;;;;;;22.99;25.00;94649.00;5077887;28;1154;-78
2023/03/24 13:22:49;;;;;;;;;;;;;;;22.58;26.06;94645.59;5077516;28;1278;-78
2023/03/24 13:25:19;;;;;;;;;;;;;;;22.50;27.22;94640.59;5077356;28;1300;-78
2023/03/24 13:27:48;;;;;;;;;;;;;;;22.41;27.20;94651.69;5076949;28;1182;-78
2023/03/24 13:30:23;;;;;;;;;;;;;;;22.28;26.49;94641.16;5078594;28;728;-78